createdAt,value
2023-04-11T05:54:43.613Z,7.96
2023-04-11T06:04:03.396Z,8.47
2023-04-11T06:13:18.303Z,9.05
2023-04-11T06:21:43.134Z,9.35
2023-04-11T06:30:07.528Z,9.74
2023-04-11T06:38:30.740Z,10.06
2023-04-11T06:46:54.441Z,10.21
2023-04-11T06:55:17.885Z,10.47
2023-04-11T07:04:01.178Z,10.82
2023-04-11T07:12:24.461Z,11.31
2023-04-11T07:20:48.699Z,11.64
2023-04-11T07:29:14.380Z,11.97
2023-04-11T07:37:50.775Z,12.28
2023-04-11T07:46:54.965Z,12.70
2023-04-11T07:55:18.062Z,12.84
2023-04-11T08:03:41.800Z,12.94
2023-04-11T08:12:20.442Z,13.10
2023-04-11T08:21:05.965Z,13.29
2023-04-11T08:30:08.126Z,13.64
2023-04-11T08:39:07.725Z,13.87
2023-04-11T08:48:02.887Z,13.84
2023-04-11T08:56:45.642Z,13.99
2023-04-11T09:05:34.183Z,14.54
2023-04-11T09:14:15.322Z,14.81
2023-04-11T09:22:39.168Z,15.03
2023-04-11T09:31:05.513Z,15.14
2023-04-11T09:39:29.598Z,15.15
2023-04-11T09:47:55.714Z,15.45
2023-04-11T09:56:18.963Z,15.69
2023-04-11T10:04:41.946Z,15.89
2023-04-11T10:13:43.586Z,16.22
2023-04-11T10:22:06.712Z,16.67
2023-04-11T10:30:41.932Z,17.16
2023-04-11T10:39:04.898Z,17.39
2023-04-11T10:47:28.996Z,17.81
2023-04-11T10:55:52.182Z,17.65
2023-04-11T11:04:16.465Z,17.43
2023-04-11T11:12:53.033Z,18.66
2023-04-11T11:21:24.767Z,22.67
2023-04-11T11:29:51.296Z,25.02
2023-04-11T11:38:14.732Z,27.68
2023-04-11T11:46:37.823Z,29.51
2023-04-11T11:55:09.612Z,28.96
2023-04-11T12:03:34.471Z,28.89
2023-04-11T12:11:57.769Z,29.08
2023-04-11T12:20:24.382Z,28.12
2023-04-11T12:28:48.128Z,27.37
2023-04-11T12:37:11.561Z,26.31
2023-04-11T12:45:42.678Z,24.47
2023-04-11T12:54:06.889Z,27.15
2023-04-11T13:02:42.339Z,25.71
2023-04-11T13:11:09.073Z,25.59
2023-04-11T13:19:32.089Z,24.58
2023-04-11T13:27:55.093Z,21.38
2023-04-11T13:36:18.319Z,20.13
2023-04-11T13:44:41.269Z,19.50
2023-04-11T13:53:04.341Z,20.18
2023-04-11T14:01:27.314Z,20.99
2023-04-11T14:09:50.630Z,21.12
2023-04-11T14:18:13.675Z,21.79
2023-04-11T14:26:36.597Z,22.35
2023-04-11T14:35:01.983Z,22.59
2023-04-11T14:43:25.382Z,21.71
2023-04-11T14:51:48.556Z,21.39
2023-04-11T15:00:18.144Z,21.23
2023-04-11T15:08:41.257Z,21.27
2023-04-11T15:17:04.171Z,21.10
2023-04-11T15:25:27.125Z,21.24
2023-04-11T15:33:50.058Z,21.06
2023-04-11T15:42:12.975Z,20.56
2023-04-11T15:50:36.145Z,20.13
2023-04-11T15:58:59.111Z,19.19
2023-04-11T16:07:23.308Z,18.04
2023-04-11T16:15:46.694Z,17.20
2023-04-11T16:24:09.762Z,16.34
2023-04-11T16:32:33.221Z,15.61
2023-04-11T16:40:56.236Z,15.04
2023-04-11T16:49:19.128Z,14.61
2023-04-11T16:57:42.063Z,14.15
2023-04-11T17:06:15.138Z,13.73
2023-04-11T17:14:38.704Z,13.29
2023-04-11T17:23:01.885Z,12.85
2023-04-11T17:31:28.066Z,12.42
2023-04-11T17:39:51.602Z,12.05
2023-04-11T17:48:14.775Z,11.70
2023-04-11T17:57:04.897Z,11.35
2023-04-11T18:05:58.220Z,11.09
2023-04-11T18:15:28.986Z,10.92
2023-04-11T18:33:05.116Z,10.52
2023-04-11T18:42:08.008Z,10.15
2023-04-11T18:51:12.326Z,9.75
2023-04-11T19:00:26.213Z,9.41
2023-04-11T19:09:29.400Z,9.22
2023-04-11T19:18:36.142Z,8.94
2023-04-11T19:27:41.071Z,8.50
2023-04-11T19:36:40.043Z,8.13
2023-04-11T19:46:25.553Z,7.89
2023-04-11T19:55:40.224Z,7.67
2023-04-11T20:06:48.819Z,7.36
2023-04-11T20:15:56.224Z,7.11
2023-04-11T20:25:21.327Z,6.97
2023-04-11T20:34:08.380Z,6.62
2023-04-11T20:42:33.896Z,6.31
2023-04-11T20:50:57.141Z,6.13
2023-04-11T20:59:21.021Z,5.96
2023-04-11T21:07:44.185Z,5.76
2023-04-11T21:16:10.087Z,5.54
2023-04-11T21:24:34.523Z,5.41
2023-04-11T21:32:59.131Z,5.39
2023-04-11T21:42:22.721Z,5.32
2023-04-11T21:51:40.834Z,5.37
2023-04-11T22:00:33.496Z,5.78
2023-04-11T22:10:05.985Z,6.17
2023-04-11T22:18:30.987Z,6.38
2023-04-11T22:26:58.543Z,6.48
2023-04-11T22:35:30.607Z,6.62
2023-04-11T22:43:53.952Z,6.76
2023-04-11T22:52:22.862Z,6.85
2023-04-11T23:00:50.099Z,7.05
2023-04-11T23:09:19.948Z,7.41
2023-04-11T23:17:45.117Z,7.72
2023-04-11T23:26:18.663Z,7.88
2023-04-11T23:34:42.124Z,7.93
2023-04-11T23:43:42.905Z,8.00
2023-04-11T23:52:07.843Z,7.87
